createdAt,value
2019-02-20T00:00:40.180Z,8.40
2019-02-20T00:01:40.172Z,8.50
2019-02-20T00:02:40.244Z,8.30
2019-02-20T00:03:40.175Z,8.90
2019-02-20T00:04:40.195Z,9.20
2019-02-20T00:05:40.201Z,9.90
2019-02-20T00:06:40.204Z,8.90
2019-02-20T00:07:40.218Z,8.70
2019-02-20T00:08:40.230Z,7.60
2019-02-20T00:09:40.298Z,7.80
2019-02-20T00:10:40.209Z,8.10
2019-02-20T00:11:40.223Z,9.40
2019-02-20T00:12:40.219Z,8.90
2019-02-20T00:13:40.306Z,8.90
2019-02-20T00:14:40.234Z,8.60
2019-02-20T00:15:40.237Z,8.80
2019-02-20T00:16:40.278Z,8.50
2019-02-20T00:17:40.248Z,8.90
2019-02-20T00:18:40.298Z,9.30
2019-02-20T00:19:40.283Z,9.10
2019-02-20T00:20:40.281Z,9.90
2019-02-20T00:21:40.260Z,9.60
2019-02-20T00:22:40.640Z,10.00
2019-02-20T00:23:40.276Z,9.30
2019-02-20T00:24:40.278Z,9.60
2019-02-20T00:25:40.308Z,8.20
2019-02-20T00:26:40.303Z,8.30
2019-02-20T00:27:40.321Z,7.40
2019-02-20T00:28:40.296Z,8.50
2019-02-20T00:29:40.319Z,8.70
2019-02-20T00:30:40.338Z,9.40
2019-02-20T00:31:40.395Z,9.10
2019-02-20T00:32:40.329Z,8.70
2019-02-20T00:33:40.326Z,8.90
2019-02-20T00:34:40.381Z,8.90
2019-02-20T00:35:40.355Z,8.70
2019-02-20T00:36:40.340Z,8.70
2019-02-20T00:37:40.354Z,9.70
2019-02-20T00:38:40.350Z,9.20
2019-02-20T00:39:40.369Z,9.10
2019-02-20T00:40:40.372Z,8.20
2019-02-20T00:41:40.386Z,8.70
2019-02-20T00:42:40.355Z,8.40
2019-02-20T00:43:40.381Z,9.00
2019-02-20T00:44:40.374Z,8.40
2019-02-20T00:45:40.433Z,8.00
2019-02-20T00:46:40.399Z,7.80
2019-02-20T00:47:40.388Z,8.10
2019-02-20T00:48:40.393Z,8.10
2019-02-20T00:49:40.397Z,8.00
2019-02-20T00:50:40.402Z,8.00
2019-02-20T00:51:40.445Z,8.00
2019-02-20T00:52:49.395Z,8.10
2019-02-20T00:53:40.437Z,8.10
2019-02-20T00:54:40.413Z,8.00
2019-02-20T00:55:40.451Z,9.30
2019-02-20T00:56:40.431Z,7.50
2019-02-20T00:57:40.422Z,8.30
2019-02-20T00:58:40.501Z,7.50
2019-02-20T00:59:40.435Z,8.20
2019-02-20T01:00:40.453Z,7.90
2019-02-20T01:01:40.447Z,7.70
2019-02-20T01:02:40.456Z,8.10
2019-02-20T01:03:40.454Z,8.50
2019-02-20T01:04:40.486Z,8.70
2019-02-20T01:05:40.466Z,7.70
2019-02-20T01:06:40.486Z,8.30
2019-02-20T01:07:40.487Z,8.00
2019-02-20T01:08:40.505Z,7.50
2019-02-20T01:09:40.493Z,8.00
2019-02-20T01:10:40.486Z,8.40
2019-02-20T01:11:40.499Z,8.50
2019-02-20T01:12:40.496Z,7.90
2019-02-20T01:13:40.555Z,8.20
2019-02-20T01:14:40.567Z,8.40
2019-02-20T01:15:40.527Z,8.30
2019-02-20T01:16:40.516Z,9.00
2019-02-20T01:17:40.516Z,8.10
2019-02-20T01:18:40.514Z,8.50
2019-02-20T01:19:40.539Z,9.40
2019-02-20T01:20:40.564Z,9.00
2019-02-20T01:21:40.574Z,8.90
2019-02-20T01:22:40.539Z,8.40
2019-02-20T01:23:40.552Z,8.70
2019-02-20T01:24:40.618Z,7.80
2019-02-20T01:25:40.580Z,8.70
2019-02-20T01:26:40.562Z,8.70
2019-02-20T01:27:40.574Z,9.00
2019-02-20T01:28:40.578Z,9.20
2019-02-20T01:29:40.590Z,9.00
2019-02-20T01:30:40.612Z,8.90
2019-02-20T01:31:40.619Z,9.30
2019-02-20T01:32:40.586Z,9.70
2019-02-20T01:33:40.607Z,9.40
2019-02-20T01:34:40.631Z,9.90
2019-02-20T01:35:40.626Z,9.40
2019-02-20T01:36:40.631Z,9.50
2019-02-20T01:37:40.631Z,10.80
2019-02-20T01:38:40.623Z,9.50
2019-02-20T01:39:40.633Z,9.10
2019-02-20T01:40:40.681Z,9.70
2019-02-20T01:41:40.649Z,9.60
2019-02-20T01:42:40.639Z,9.20
2019-02-20T01:43:40.636Z,8.60
2019-02-20T01:44:40.653Z,8.70
2019-02-20T01:45:40.671Z,8.30
2019-02-20T01:46:40.683Z,8.50
2019-02-20T01:47:40.667Z,8.20
2019-02-20T01:48:40.672Z,8.00
2019-02-20T01:49:40.676Z,8.20
2019-02-20T01:50:40.680Z,7.80
2019-02-20T01:51:40.712Z,8.30
2019-02-20T01:52:40.698Z,8.70
2019-02-20T01:53:40.690Z,8.40
2019-02-20T01:54:40.708Z,8.50
2019-02-20T01:55:40.712Z,8.00
2019-02-20T01:56:40.754Z,7.70
2019-02-20T01:57:40.711Z,8.10
2019-02-20T01:58:40.712Z,8.00
2019-02-20T01:59:40.764Z,8.30
2019-02-20T02:00:40.726Z,7.50
2019-02-20T02:01:40.733Z,8.50
2019-02-20T02:02:40.752Z,7.30
2019-02-20T02:03:40.748Z,7.40
2019-02-20T02:04:40.755Z,7.70
2019-02-20T02:05:40.749Z,7.40
2019-02-20T02:06:40.780Z,7.10
2019-02-20T02:07:40.744Z,7.40
2019-02-20T02:08:40.787Z,7.30
2019-02-20T02:09:40.758Z,7.20
2019-02-20T02:10:40.785Z,7.50
2019-02-20T02:11:40.771Z,7.40
2019-02-20T02:12:40.813Z,7.90
2019-02-20T02:13:40.823Z,6.80
2019-02-20T02:14:40.809Z,7.50
2019-02-20T02:15:40.797Z,6.80
2019-02-20T02:16:40.796Z,7.10
2019-02-20T02:17:40.859Z,7.10
2019-02-20T02:18:40.809Z,6.80
2019-02-20T02:19:40.828Z,6.80
2019-02-20T02:20:40.808Z,7.20
2019-02-20T02:21:40.832Z,6.80
2019-02-20T02:22:40.837Z,7.10
2019-02-20T02:23:40.829Z,6.90
2019-02-20T02:24:40.928Z,6.80
2019-02-20T02:25:40.836Z,6.60
2019-02-20T02:26:40.860Z,7.10
2019-02-20T02:27:40.857Z,6.60
2019-02-20T02:28:40.867Z,6.00
2019-02-20T02:29:40.873Z,6.00
2019-02-20T02:30:40.877Z,6.90
2019-02-20T02:31:40.883Z,6.60
2019-02-20T02:32:40.866Z,6.30
2019-02-20T02:33:40.883Z,6.30
2019-02-20T02:34:40.865Z,6.20
2019-02-20T02:35:40.885Z,6.30
2019-02-20T02:36:40.906Z,6.60
2019-02-20T02:37:40.892Z,5.80
2019-02-20T02:38:40.952Z,6.00
2019-02-20T02:39:40.892Z,6.00
2019-02-20T02:40:40.897Z,5.90
2019-02-20T02:41:40.930Z,5.60
2019-02-20T02:42:40.909Z,6.10
2019-02-20T02:43:40.909Z,5.90
2019-02-20T02:44:40.969Z,5.80
2019-02-20T02:45:40.962Z,6.50
2019-02-20T02:46:40.951Z,5.90
2019-02-20T02:47:40.941Z,5.60
2019-02-20T02:48:40.936Z,5.90
2019-02-20T02:49:40.961Z,5.10
2019-02-20T02:50:40.946Z,5.60
2019-02-20T02:51:40.978Z,5.60
2019-02-20T02:52:40.971Z,5.60
2019-02-20T02:53:40.960Z,5.60
2019-02-20T02:54:40.962Z,5.60
2019-02-20T02:55:41.024Z,5.80
2019-02-20T02:56:41.030Z,5.60
2019-02-20T02:57:40.985Z,5.80
2019-02-20T02:58:40.990Z,5.20
2019-02-20T02:59:40.998Z,5.50
2019-02-20T03:00:40.999Z,5.60
2019-02-20T03:01:40.999Z,6.30
2019-02-20T03:02:41.028Z,5.20
2019-02-20T03:03:40.996Z,5.10
2019-02-20T03:04:41.016Z,5.40
2019-02-20T03:05:41.010Z,5.10
2019-02-20T03:06:41.046Z,6.10
2019-02-20T03:07:41.042Z,5.20
2019-02-20T03:08:41.016Z,5.10
2019-02-20T03:09:41.037Z,5.00
2019-02-20T03:10:41.077Z,5.20
2019-02-20T03:11:41.046Z,4.90
2019-02-20T03:12:41.078Z,5.00
2019-02-20T03:13:41.041Z,5.10
2019-02-20T03:14:41.062Z,5.30
2019-02-20T03:15:41.065Z,5.10
2019-02-20T03:16:41.049Z,5.10
2019-02-20T03:17:41.069Z,5.50
2019-02-20T03:18:41.111Z,5.00
2019-02-20T03:19:41.076Z,5.10
2019-02-20T03:20:41.075Z,5.50
2019-02-20T03:21:41.088Z,5.20
2019-02-20T03:22:41.086Z,4.80
2019-02-20T03:23:41.092Z,5.40
2019-02-20T03:24:41.181Z,4.70
2019-02-20T03:25:41.105Z,5.30
2019-02-20T03:26:41.112Z,5.30
2019-02-20T03:27:41.118Z,6.70
2019-02-20T03:28:41.132Z,5.50
2019-02-20T03:29:41.115Z,6.00
2019-02-20T03:30:41.129Z,5.40
2019-02-20T03:31:41.141Z,5.10
2019-02-20T03:32:41.139Z,5.20
2019-02-20T03:33:41.161Z,4.90
2019-02-20T03:34:41.125Z,4.90
2019-02-20T03:35:41.178Z,5.30
2019-02-20T03:36:41.140Z,5.40
2019-02-20T03:37:41.149Z,5.40
2019-02-20T03:38:41.191Z,5.10
2019-02-20T03:39:41.167Z,5.00
2019-02-20T03:40:41.202Z,6.10
2019-02-20T03:41:41.212Z,5.70
2019-02-20T03:42:41.170Z,5.60
2019-02-20T03:43:41.243Z,5.50
2019-02-20T03:44:41.198Z,5.30
2019-02-20T03:45:41.226Z,5.10
2019-02-20T03:46:41.179Z,5.50
2019-02-20T03:47:41.192Z,5.70
2019-02-20T03:48:41.229Z,5.20
2019-02-20T03:49:41.230Z,5.70
2019-02-20T03:50:41.208Z,5.00
2019-02-20T03:51:41.221Z,5.40
2019-02-20T03:52:41.240Z,5.60
2019-02-20T03:53:50.856Z,5.60
2019-02-20T03:54:41.241Z,5.90
2019-02-20T03:55:41.224Z,5.50
2019-02-20T03:56:41.228Z,5.50
2019-02-20T03:57:41.238Z,5.70
2019-02-20T03:58:41.267Z,5.80
2019-02-20T03:59:41.259Z,6.00
2019-02-20T04:00:41.248Z,6.00
2019-02-20T04:01:41.290Z,5.90
2019-02-20T04:02:41.266Z,6.00
2019-02-20T04:03:41.266Z,5.80
2019-02-20T04:04:41.264Z,6.40
2019-02-20T04:05:41.271Z,5.70
2019-02-20T04:06:41.337Z,6.10
2019-02-20T04:07:41.291Z,6.00
2019-02-20T04:08:41.286Z,6.00
2019-02-20T04:09:41.321Z,5.90
2019-02-20T04:10:41.320Z,5.70
2019-02-20T04:11:41.288Z,5.80
2019-02-20T04:12:41.313Z,6.30
2019-02-20T04:13:41.297Z,5.60
2019-02-20T04:14:41.336Z,6.50
2019-02-20T04:15:41.313Z,6.30
2019-02-20T04:16:41.322Z,6.30
2019-02-20T04:17:41.367Z,6.10
2019-02-20T04:18:41.348Z,6.20
2019-02-20T04:19:41.321Z,6.10
2019-02-20T04:20:41.344Z,6.10
2019-02-20T04:21:41.348Z,6.10
2019-02-20T04:22:41.413Z,6.80
2019-02-20T04:23:41.342Z,6.50
2019-02-20T04:24:41.385Z,7.00
2019-02-20T04:25:41.363Z,6.10
2019-02-20T04:26:41.367Z,6.80
2019-02-20T04:27:41.366Z,6.60
2019-02-20T04:28:41.380Z,6.40
2019-02-20T04:29:41.420Z,7.30
2019-02-20T04:30:41.376Z,7.20
2019-02-20T04:31:41.392Z,7.70
2019-02-20T04:32:41.392Z,7.00
2019-02-20T04:33:41.422Z,7.80
2019-02-20T04:34:41.388Z,7.20
2019-02-20T04:35:41.409Z,7.40
2019-02-20T04:36:41.404Z,7.30
2019-02-20T04:37:41.412Z,7.40
2019-02-20T04:38:41.439Z,7.10
2019-02-20T04:39:41.439Z,7.10
2019-02-20T04:40:41.418Z,7.30
2019-02-20T04:41:41.433Z,7.60
2019-02-20T04:42:41.428Z,7.80
2019-02-20T04:43:41.445Z,7.70
2019-02-20T04:44:41.468Z,8.00
2019-02-20T04:45:41.486Z,7.80
2019-02-20T04:46:41.450Z,7.50
2019-02-20T04:47:41.468Z,7.90
2019-02-20T04:48:41.461Z,8.00
2019-02-20T04:49:41.516Z,7.60
2019-02-20T04:50:41.533Z,8.10
2019-02-20T04:51:41.482Z,8.10
2019-02-20T04:52:41.493Z,8.20
2019-02-20T04:53:41.487Z,8.40
2019-02-20T04:54:41.493Z,8.10
2019-02-20T04:55:41.519Z,8.20
2019-02-20T04:56:41.501Z,8.20
2019-02-20T04:57:41.510Z,8.40
2019-02-20T04:58:41.532Z,8.00
2019-02-20T04:59:41.506Z,9.10
2019-02-20T05:00:41.534Z,8.60
2019-02-20T05:01:41.526Z,9.00
2019-02-20T05:02:41.555Z,8.80
2019-02-20T05:03:41.557Z,8.60
2019-02-20T05:04:41.589Z,9.10
2019-02-20T05:05:41.548Z,9.10
2019-02-20T05:06:41.581Z,9.00
2019-02-20T05:07:41.544Z,8.50
2019-02-20T05:08:41.591Z,9.30
2019-02-20T05:09:41.549Z,8.70
2019-02-20T05:10:41.596Z,8.70
2019-02-20T05:11:41.615Z,8.30
2019-02-20T05:12:41.582Z,8.60
2019-02-20T05:13:41.622Z,8.30
2019-02-20T05:14:41.622Z,8.60
2019-02-20T05:15:41.587Z,8.60
2019-02-20T05:16:41.597Z,8.80
2019-02-20T05:17:41.618Z,9.00
2019-02-20T05:18:41.611Z,8.90
2019-02-20T05:19:41.591Z,8.70
2019-02-20T05:20:41.601Z,8.20
2019-02-20T05:21:41.936Z,8.80
2019-02-20T05:22:41.623Z,8.70
2019-02-20T05:23:42.894Z,8.70
2019-02-20T05:24:41.659Z,8.60
2019-02-20T05:25:41.649Z,8.20
2019-02-20T05:26:41.629Z,8.60
2019-02-20T05:27:41.677Z,9.50
2019-02-20T05:28:41.641Z,8.70
2019-02-20T05:29:41.644Z,8.80
2019-02-20T05:30:41.657Z,9.20
2019-02-20T05:31:41.678Z,8.90
2019-02-20T05:32:41.679Z,9.00
2019-02-20T05:33:41.671Z,8.50
2019-02-20T05:34:41.667Z,9.30
2019-02-20T05:35:41.672Z,9.30
2019-02-20T05:36:41.682Z,9.20
2019-02-20T05:37:41.726Z,9.10
2019-02-20T05:38:41.701Z,9.30
2019-02-20T05:39:41.696Z,8.50
2019-02-20T05:40:41.712Z,9.40
2019-02-20T05:41:41.708Z,8.90
2019-02-20T05:42:41.726Z,8.60
2019-02-20T05:43:41.747Z,9.00
2019-02-20T05:44:41.732Z,9.10
2019-02-20T05:45:41.727Z,9.00
2019-02-20T05:46:41.733Z,9.50
2019-02-20T05:47:41.763Z,8.70
2019-02-20T05:48:41.759Z,8.90
2019-02-20T05:49:41.756Z,8.60
2019-02-20T05:50:41.748Z,8.50
2019-02-20T05:51:41.789Z,8.80
2019-02-20T05:52:41.795Z,8.90
2019-02-20T05:53:41.804Z,8.90
2019-02-20T05:54:41.758Z,8.70
2019-02-20T05:55:41.768Z,8.80
2019-02-20T05:56:41.772Z,8.90
2019-02-20T05:57:41.784Z,9.00
2019-02-20T05:58:41.810Z,9.00
2019-02-20T05:59:41.831Z,9.00
2019-02-20T06:00:41.810Z,8.90
2019-02-20T06:01:41.804Z,9.10
2019-02-20T06:02:41.809Z,9.00
2019-02-20T06:03:41.827Z,9.50
2019-02-20T06:04:41.879Z,8.70
2019-02-20T06:05:41.828Z,8.70
2019-02-20T06:06:41.841Z,9.20
2019-02-20T06:07:41.841Z,8.90
2019-02-20T06:08:41.845Z,8.30
2019-02-20T06:09:41.832Z,8.80
2019-02-20T06:10:41.884Z,8.60
2019-02-20T06:11:41.842Z,9.60
2019-02-20T06:12:41.850Z,9.70
2019-02-20T06:13:41.865Z,9.20
2019-02-20T06:14:41.877Z,8.80
2019-02-20T06:15:43.142Z,8.90
2019-02-20T06:16:41.890Z,9.20
2019-02-20T06:17:41.938Z,9.20
2019-02-20T06:18:41.905Z,8.80
2019-02-20T06:19:41.874Z,8.90
2019-02-20T06:20:41.899Z,8.70
2019-02-20T06:21:41.911Z,8.50
2019-02-20T06:22:41.913Z,8.60
2019-02-20T06:23:41.898Z,8.80
2019-02-20T06:24:44.319Z,8.30
2019-02-20T06:25:41.928Z,8.30
2019-02-20T06:26:41.945Z,8.50
2019-02-20T06:27:41.945Z,8.90
2019-02-20T06:28:41.937Z,8.20
2019-02-20T06:29:41.941Z,8.20
2019-02-20T06:30:41.956Z,8.20
2019-02-20T06:31:41.988Z,8.40
2019-02-20T06:32:41.966Z,8.40
2019-02-20T06:33:41.954Z,8.70
2019-02-20T06:34:41.972Z,8.10
2019-02-20T06:35:41.987Z,8.40
2019-02-20T06:36:41.979Z,8.20
2019-02-20T06:37:42.000Z,9.00
2019-02-20T06:38:42.092Z,8.80
2019-02-20T06:39:41.980Z,8.30
2019-02-20T06:40:41.982Z,8.40
2019-02-20T06:41:42.001Z,8.30
2019-02-20T06:42:42.022Z,8.20
2019-02-20T06:43:42.019Z,8.30
2019-02-20T06:44:42.007Z,8.20
2019-02-20T06:45:42.010Z,8.70
2019-02-20T06:46:42.013Z,8.70
2019-02-20T06:47:42.018Z,8.70
2019-02-20T06:48:42.057Z,8.30
2019-02-20T06:49:42.052Z,7.70
2019-02-20T06:50:42.048Z,8.10
2019-02-20T06:51:42.036Z,8.30
2019-02-20T06:52:42.045Z,7.50
2019-02-20T06:53:42.047Z,8.10
2019-02-20T06:54:42.075Z,8.40
2019-02-20T06:55:42.101Z,8.20
2019-02-20T06:56:42.089Z,8.30
2019-02-20T06:57:42.078Z,8.00
2019-02-20T06:58:42.080Z,8.40
2019-02-20T06:59:42.078Z,8.60
2019-02-20T07:00:42.097Z,7.90
2019-02-20T07:01:42.116Z,7.90
2019-02-20T07:02:42.098Z,8.00
2019-02-20T07:03:42.191Z,8.30
2019-02-20T07:04:42.160Z,8.30
2019-02-20T07:05:42.110Z,8.10
2019-02-20T07:06:42.127Z,8.00
2019-02-20T07:07:42.117Z,7.90
2019-02-20T07:08:42.140Z,8.30
2019-02-20T07:09:42.160Z,8.30
2019-02-20T07:10:42.180Z,7.80
2019-02-20T07:11:42.148Z,7.90
2019-02-20T07:12:42.154Z,8.10
2019-02-20T07:13:42.147Z,8.10
2019-02-20T07:14:42.141Z,8.40
2019-02-20T07:15:42.171Z,7.60
2019-02-20T07:16:42.160Z,8.00
2019-02-20T07:17:42.200Z,7.80
2019-02-20T07:18:42.176Z,7.30
2019-02-20T07:19:42.213Z,8.30
2019-02-20T07:20:42.216Z,9.20
2019-02-20T07:21:42.201Z,10.20
2019-02-20T07:22:42.192Z,9.20
2019-02-20T07:23:42.192Z,8.20
2019-02-20T07:24:42.207Z,9.30
2019-02-20T07:25:42.229Z,8.90
2019-02-20T07:26:42.278Z,7.70
2019-02-20T07:27:42.239Z,8.60
2019-02-20T07:28:42.229Z,7.40
2019-02-20T07:29:42.278Z,8.00
2019-02-20T07:30:42.240Z,7.50
2019-02-20T07:31:42.267Z,7.80
2019-02-20T07:32:42.289Z,7.50
2019-02-20T07:33:42.260Z,8.40
2019-02-20T07:34:42.288Z,7.80
2019-02-20T07:35:42.260Z,7.90
2019-02-20T07:36:42.283Z,7.90
2019-02-20T07:37:42.292Z,8.00
2019-02-20T07:38:42.321Z,8.00
2019-02-20T07:39:42.387Z,7.70
2019-02-20T07:40:42.311Z,7.70
2019-02-20T07:41:42.308Z,7.70
2019-02-20T07:42:42.324Z,7.50
2019-02-20T07:43:42.317Z,7.50
2019-02-20T07:44:42.306Z,7.40
2019-02-20T07:45:42.419Z,7.70
2019-02-20T07:46:42.317Z,7.70
2019-02-20T07:47:42.363Z,7.20
2019-02-20T07:48:42.341Z,8.10
2019-02-20T07:49:42.330Z,7.80
2019-02-20T07:50:42.343Z,8.20
2019-02-20T07:51:42.375Z,7.40
2019-02-20T07:52:42.366Z,8.40
2019-02-20T07:53:42.363Z,8.10
2019-02-20T07:54:42.367Z,8.10
2019-02-20T07:55:42.421Z,7.90
2019-02-20T07:56:42.385Z,8.20
2019-02-20T07:57:42.435Z,8.20
2019-02-20T07:58:42.379Z,8.40
2019-02-20T07:59:42.395Z,8.50
2019-02-20T08:00:42.419Z,8.60
2019-02-20T08:01:42.413Z,8.50
2019-02-20T08:02:42.414Z,8.00
2019-02-20T08:03:42.438Z,8.30
2019-02-20T08:04:42.426Z,8.80
2019-02-20T08:05:42.457Z,8.10
2019-02-20T08:06:42.439Z,8.60
2019-02-20T08:07:42.439Z,8.50
2019-02-20T08:08:42.503Z,8.30
2019-02-20T08:09:42.453Z,8.40
2019-02-20T08:10:42.461Z,8.20
2019-02-20T08:11:42.484Z,8.10
2019-02-20T08:12:42.492Z,8.20
2019-02-20T08:13:42.496Z,8.10
2019-02-20T08:14:42.466Z,8.10
2019-02-20T08:15:42.508Z,8.20
2019-02-20T08:16:51.769Z,8.00
2019-02-20T08:17:42.483Z,8.10
2019-02-20T08:18:42.562Z,7.60
2019-02-20T08:19:42.515Z,8.00
2019-02-20T08:20:42.550Z,8.00
2019-02-20T08:21:42.535Z,8.40
2019-02-20T08:22:42.521Z,7.90
2019-02-20T08:23:42.552Z,8.50
2019-02-20T08:24:42.553Z,7.60
2019-02-20T08:25:42.537Z,7.80
2019-02-20T08:26:42.564Z,8.50
2019-02-20T08:27:42.551Z,8.30
2019-02-20T08:28:42.575Z,7.90
2019-02-20T08:29:42.554Z,7.60
2019-02-20T08:30:42.562Z,8.00
2019-02-20T08:31:42.720Z,8.10
2019-02-20T08:32:42.570Z,8.30
2019-02-20T08:33:42.609Z,8.50
2019-02-20T08:34:42.578Z,8.20
2019-02-20T08:35:42.592Z,8.30
2019-02-20T08:36:42.592Z,8.20
2019-02-20T08:37:42.665Z,8.30
2019-02-20T08:38:42.623Z,8.30
2019-02-20T08:39:42.622Z,8.40
2019-02-20T08:40:42.615Z,8.80
2019-02-20T08:41:42.629Z,8.90
2019-02-20T08:42:42.646Z,8.30
2019-02-20T08:43:42.639Z,8.20
2019-02-20T08:44:42.722Z,8.10
2019-02-20T08:45:42.645Z,8.40
2019-02-20T08:46:42.664Z,8.50
2019-02-20T08:47:42.727Z,8.80
2019-02-20T08:48:42.670Z,8.20
2019-02-20T08:49:42.677Z,8.80
2019-02-20T08:50:42.680Z,8.70
2019-02-20T08:51:42.701Z,8.60
2019-02-20T08:52:42.708Z,8.40
2019-02-20T08:53:42.688Z,8.80
2019-02-20T08:54:42.701Z,8.40
2019-02-20T08:55:42.725Z,8.20
2019-02-20T08:56:42.706Z,8.40
2019-02-20T08:57:42.706Z,9.20
2019-02-20T08:58:42.737Z,8.40
2019-02-20T08:59:42.743Z,9.70
2019-02-20T09:00:42.769Z,8.80
2019-02-20T09:01:42.745Z,8.30
2019-02-20T09:02:42.731Z,9.20
2019-02-20T09:03:42.742Z,9.10
2019-02-20T09:04:42.769Z,8.90
2019-02-20T09:05:42.784Z,8.70
2019-02-20T09:06:42.783Z,9.00
2019-02-20T09:07:42.777Z,10.80
2019-02-20T09:08:42.779Z,13.30
2019-02-20T09:09:42.782Z,11.20
2019-02-20T09:10:42.829Z,12.40
2019-02-20T09:11:42.790Z,11.20
2019-02-20T09:12:42.792Z,11.20
2019-02-20T09:13:42.802Z,11.20
2019-02-20T09:14:42.818Z,11.00
2019-02-20T09:15:42.815Z,10.10
2019-02-20T09:16:42.867Z,14.20
2019-02-20T09:17:42.821Z,11.40
2019-02-20T09:18:42.831Z,12.10
2019-02-20T09:19:42.832Z,10.50
2019-02-20T09:20:42.844Z,11.30
2019-02-20T09:21:42.889Z,10.40
2019-02-20T09:22:42.843Z,13.80
2019-02-20T09:23:42.865Z,10.90
2019-02-20T09:24:42.858Z,12.10
2019-02-20T09:25:42.880Z,12.50
2019-02-20T09:26:42.909Z,12.90
2019-02-20T09:27:42.901Z,25.10
2019-02-20T09:28:42.898Z,19.40
2019-02-20T09:29:42.905Z,12.10
2019-02-20T09:30:42.907Z,11.70
2019-02-20T09:31:42.922Z,9.20
2019-02-20T09:32:42.928Z,9.10
2019-02-20T09:33:42.918Z,8.60
2019-02-20T09:34:42.919Z,8.30
2019-02-20T09:35:42.929Z,8.30
2019-02-20T09:36:42.957Z,8.80
2019-02-20T09:37:42.959Z,8.60
2019-02-20T09:38:42.961Z,9.20
2019-02-20T09:39:43.307Z,8.20
2019-02-20T09:40:42.973Z,9.00
2019-02-20T09:41:42.980Z,9.40
2019-02-20T09:42:43.047Z,9.30
2019-02-20T09:43:43.006Z,8.30
2019-02-20T09:44:43.031Z,9.00
2019-02-20T09:45:44.533Z,10.30
2019-02-20T09:46:43.008Z,9.50
2019-02-20T09:47:43.008Z,9.50
2019-02-20T09:48:43.046Z,9.40
2019-02-20T09:49:43.029Z,10.30
2019-02-20T09:50:43.028Z,9.60
2019-02-20T09:51:43.038Z,8.60
2019-02-20T09:52:51.678Z,8.60
2019-02-20T09:53:43.078Z,8.60
2019-02-20T09:54:43.054Z,8.70
2019-02-20T09:55:51.065Z,8.40
2019-02-20T09:56:43.068Z,8.40
2019-02-20T09:57:43.077Z,8.60
2019-02-20T09:58:43.103Z,9.00
2019-02-20T09:59:43.100Z,8.30
2019-02-20T10:00:43.199Z,7.70
2019-02-20T10:01:43.135Z,8.40
2019-02-20T10:02:43.130Z,9.20
2019-02-20T10:03:43.140Z,9.20
2019-02-20T10:04:43.179Z,8.70
2019-02-20T10:05:43.132Z,8.70
2019-02-20T10:06:44.662Z,9.60
2019-02-20T10:07:43.150Z,8.70
2019-02-20T10:08:43.588Z,8.90
2019-02-20T10:09:43.191Z,10.10
2019-02-20T10:10:43.173Z,9.40
2019-02-20T10:11:43.180Z,9.50
2019-02-20T10:12:43.193Z,9.90
2019-02-20T10:13:43.213Z,9.40
2019-02-20T10:14:43.212Z,9.90
2019-02-20T10:15:43.219Z,8.40
2019-02-20T10:16:43.213Z,8.80
2019-02-20T10:17:43.207Z,9.50
2019-02-20T10:18:43.224Z,9.90
2019-02-20T10:19:43.240Z,9.10
2019-02-20T10:20:43.269Z,8.80
2019-02-20T10:21:43.243Z,9.00
2019-02-20T10:22:43.254Z,9.80
2019-02-20T10:23:45.205Z,9.20
2019-02-20T10:24:43.285Z,9.60
2019-02-20T10:25:43.279Z,8.70
2019-02-20T10:26:43.281Z,8.60
2019-02-20T10:27:43.297Z,8.70
2019-02-20T10:28:43.299Z,8.10
2019-02-20T10:29:43.326Z,8.60
2019-02-20T10:30:43.319Z,8.50
2019-02-20T10:31:43.323Z,7.90
2019-02-20T10:32:43.334Z,8.90
2019-02-20T10:33:43.339Z,8.40
2019-02-20T10:34:43.347Z,8.60
2019-02-20T10:35:43.379Z,8.60
2019-02-20T10:36:43.353Z,8.40
2019-02-20T10:37:43.451Z,9.00
2019-02-20T10:38:43.377Z,8.60
2019-02-20T10:39:43.366Z,8.70
2019-02-20T10:40:43.387Z,9.00
2019-02-20T10:41:43.416Z,8.80
2019-02-20T10:42:43.396Z,8.70
2019-02-20T10:43:43.401Z,10.90
2019-02-20T10:44:43.406Z,8.60
2019-02-20T10:45:43.440Z,8.50
2019-02-20T10:46:43.429Z,8.60
2019-02-20T10:47:43.427Z,8.90
2019-02-20T10:48:43.446Z,8.60
2019-02-20T10:49:43.445Z,8.50
2019-02-20T10:50:43.445Z,8.30
2019-02-20T10:51:43.564Z,8.40
2019-02-20T10:52:43.475Z,8.50
2019-02-20T10:53:43.469Z,8.70
2019-02-20T10:54:43.481Z,9.00
2019-02-20T10:55:43.488Z,9.20
2019-02-20T10:56:43.507Z,8.90
2019-02-20T10:57:43.519Z,9.30
2019-02-20T10:58:43.505Z,9.10
2019-02-20T10:59:43.525Z,9.30
2019-02-20T11:00:43.524Z,8.20
2019-02-20T11:01:43.551Z,9.10
2019-02-20T11:02:43.576Z,9.10
2019-02-20T11:03:43.555Z,8.40
2019-02-20T11:04:43.549Z,8.10
2019-02-20T11:05:43.566Z,8.70
2019-02-20T11:06:43.569Z,8.30
2019-02-20T11:07:43.590Z,8.20
2019-02-20T11:08:43.564Z,9.00
2019-02-20T11:09:43.578Z,9.20
2019-02-20T11:10:43.626Z,9.80
2019-02-20T11:11:43.600Z,8.80
2019-02-20T11:12:43.635Z,8.00
2019-02-20T11:13:43.659Z,8.50
2019-02-20T11:14:43.669Z,8.70
2019-02-20T11:15:43.626Z,8.50
2019-02-20T11:16:43.628Z,8.60
2019-02-20T11:17:43.652Z,8.40
2019-02-20T11:18:43.639Z,8.30
2019-02-20T11:19:43.728Z,8.10
2019-02-20T11:20:48.504Z,8.30
2019-02-20T11:21:43.673Z,8.60
2019-02-20T11:22:43.681Z,8.20
2019-02-20T11:23:43.682Z,8.00
2019-02-20T11:24:43.707Z,8.30
2019-02-20T11:25:43.741Z,8.00
2019-02-20T11:26:54.048Z,8.00
2019-02-20T11:27:43.727Z,8.80
2019-02-20T11:28:43.753Z,8.50
2019-02-20T11:29:43.737Z,8.60
2019-02-20T11:30:43.724Z,8.90
2019-02-20T11:31:43.779Z,8.80
2019-02-20T11:32:43.760Z,8.70
2019-02-20T11:33:43.765Z,8.60
2019-02-20T11:34:43.774Z,9.20
2019-02-20T11:35:43.804Z,8.50
2019-02-20T11:36:43.790Z,8.40
2019-02-20T11:37:43.795Z,8.40
2019-02-20T11:38:43.816Z,8.60
2019-02-20T11:39:43.822Z,8.50
2019-02-20T11:40:43.914Z,9.30
2019-02-20T11:41:43.834Z,9.30
2019-02-20T11:42:43.864Z,8.70
2019-02-20T11:43:43.833Z,8.90
2019-02-20T11:44:43.893Z,8.40
2019-02-20T11:45:43.862Z,8.80
2019-02-20T11:46:44.695Z,8.70
2019-02-20T11:47:43.865Z,8.80
2019-02-20T11:48:43.880Z,10.80
2019-02-20T11:49:43.898Z,10.10
2019-02-20T11:50:44.055Z,12.10
2019-02-20T11:51:43.903Z,10.10
2019-02-20T11:52:43.905Z,10.40
2019-02-20T11:53:43.921Z,9.30
2019-02-20T11:54:43.936Z,9.00
2019-02-20T11:55:43.994Z,9.20
2019-02-20T11:56:43.957Z,10.00
2019-02-20T11:57:43.940Z,9.40
2019-02-20T11:58:43.949Z,9.20
2019-02-20T11:59:43.948Z,9.30
2019-02-20T12:00:43.958Z,9.70
2019-02-20T12:01:43.992Z,10.00
2019-02-20T12:02:43.998Z,9.30
2019-02-20T12:03:43.982Z,9.80
2019-02-20T12:04:44.012Z,9.50
2019-02-20T12:05:43.999Z,9.20
2019-02-20T12:06:44.009Z,9.40
2019-02-20T12:07:44.042Z,10.10
2019-02-20T12:08:44.032Z,9.70
2019-02-20T12:09:45.363Z,9.70
2019-02-20T12:10:44.042Z,9.40
2019-02-20T12:11:44.048Z,11.50
2019-02-20T12:12:44.085Z,11.10
2019-02-20T12:13:44.053Z,10.50
2019-02-20T12:14:44.067Z,11.80
2019-02-20T12:15:44.186Z,10.80
2019-02-20T12:16:44.072Z,10.10
2019-02-20T12:17:44.130Z,9.80
2019-02-20T12:18:45.297Z,10.40
2019-02-20T12:19:44.124Z,9.70
2019-02-20T12:20:44.113Z,9.50
2019-02-20T12:21:44.110Z,10.00
2019-02-20T12:22:44.143Z,9.80
2019-02-20T12:23:44.186Z,9.20
2019-02-20T12:24:44.148Z,9.00
2019-02-20T12:25:44.156Z,8.90
2019-02-20T12:26:45.033Z,9.50
2019-02-20T12:27:44.155Z,9.20
2019-02-20T12:28:44.206Z,9.20
2019-02-20T12:29:44.186Z,9.10
2019-02-20T12:30:44.186Z,11.00
2019-02-20T12:31:52.090Z,8.90
2019-02-20T12:32:44.228Z,9.10
2019-02-20T12:33:44.304Z,9.90
2019-02-20T12:34:44.216Z,8.90
2019-02-20T12:35:44.257Z,9.30
2019-02-20T12:36:44.252Z,9.90
2019-02-20T12:37:44.237Z,9.80
2019-02-20T12:38:44.236Z,9.80
2019-02-20T12:39:44.273Z,9.70
2019-02-20T12:40:44.265Z,9.30
2019-02-20T12:41:44.275Z,9.20
2019-02-20T12:42:44.273Z,8.70
2019-02-20T12:43:44.274Z,9.70
2019-02-20T12:44:44.304Z,8.70
2019-02-20T12:45:44.322Z,8.70
2019-02-20T12:46:44.316Z,8.80
2019-02-20T12:47:44.344Z,9.40
2019-02-20T12:48:44.315Z,9.20
2019-02-20T12:49:46.232Z,9.50
2019-02-20T12:50:44.358Z,9.00
2019-02-20T12:51:44.358Z,10.10
2019-02-20T12:52:44.355Z,9.50
2019-02-20T12:53:44.361Z,10.30
2019-02-20T12:54:44.367Z,9.50
2019-02-20T12:55:44.411Z,9.90
2019-02-20T12:56:44.412Z,9.80
2019-02-20T12:57:44.372Z,9.00
2019-02-20T12:58:44.391Z,8.80
2019-02-20T12:59:44.402Z,8.90
2019-02-20T13:00:44.415Z,9.10
2019-02-20T13:01:44.438Z,9.60
2019-02-20T13:02:44.406Z,9.10
2019-02-20T13:03:44.434Z,9.60
2019-02-20T13:04:44.447Z,9.00
2019-02-20T13:05:44.446Z,9.90
2019-02-20T13:06:44.517Z,10.90
2019-02-20T13:07:44.469Z,9.40
2019-02-20T13:08:44.462Z,9.70
2019-02-20T13:09:44.472Z,10.20
2019-02-20T13:10:44.496Z,9.80
2019-02-20T13:11:44.485Z,9.60
2019-02-20T13:12:44.514Z,9.10
2019-02-20T13:13:44.502Z,9.40
2019-02-20T13:14:44.507Z,10.20
2019-02-20T13:15:44.511Z,9.00
2019-02-20T13:16:44.592Z,9.70